createdAt,value
2023-04-12T00:00:13.495Z,11.20
2023-04-12T00:02:42.516Z,10.93
2023-04-12T00:05:11.819Z,10.10
2023-04-12T00:07:40.208Z,11.83
2023-04-12T00:10:09.499Z,11.20
2023-04-12T00:12:40.499Z,11.77
2023-04-12T00:15:09.842Z,11.53
2023-04-12T00:17:37.853Z,10.60
2023-04-12T00:20:07.560Z,10.90
2023-04-12T00:22:37.058Z,11.87
2023-04-12T00:25:06.923Z,11.33
2023-04-12T00:27:34.988Z,12.00
2023-04-12T00:30:04.788Z,11.23
2023-04-12T00:32:32.757Z,11.67
2023-04-12T00:35:00.835Z,12.03
2023-04-12T00:37:28.869Z,11.80
2023-04-12T00:39:56.832Z,12.57
2023-04-12T00:42:24.805Z,12.07
2023-04-12T00:44:52.726Z,12.13
2023-04-12T00:47:22.246Z,12.07
2023-04-12T00:49:50.258Z,12.80
2023-04-12T00:52:18.563Z,12.40
2023-04-12T00:54:47.030Z,11.50
2023-04-12T00:57:15.132Z,11.70
2023-04-12T00:59:43.082Z,11.57
2023-04-12T01:02:11.259Z,11.87
2023-04-12T01:04:43.700Z,12.73
2023-04-12T01:07:20.618Z,12.47
2023-04-12T01:10:00.517Z,11.43
2023-04-12T01:12:42.263Z,12.77
2023-04-12T01:15:13.750Z,12.87
2023-04-12T01:17:48.830Z,12.47
2023-04-12T01:20:21.756Z,12.50
2023-04-12T01:23:21.303Z,13.03
2023-04-12T01:26:08.314Z,13.13
2023-04-12T01:28:42.474Z,14.53
2023-04-12T01:31:13.315Z,12.87
2023-04-12T01:33:44.529Z,12.77
2023-04-12T01:36:15.177Z,12.43
2023-04-12T01:38:43.841Z,13.70
2023-04-12T01:41:11.965Z,12.90
2023-04-12T01:43:44.807Z,13.07
2023-04-12T01:46:17.013Z,13.40
2023-04-12T01:48:50.452Z,14.00
2023-04-12T01:51:32.481Z,13.57
2023-04-12T01:54:04.331Z,14.00
2023-04-12T01:56:39.496Z,15.40
2023-04-12T01:59:12.129Z,13.80
2023-04-12T02:01:48.489Z,14.50
2023-04-12T02:04:33.784Z,14.40
2023-04-12T02:07:02.015Z,14.83
2023-04-12T02:09:30.015Z,13.77
2023-04-12T02:11:57.972Z,14.43
2023-04-12T02:14:27.925Z,14.37
2023-04-12T02:16:56.347Z,13.97
2023-04-12T02:19:24.742Z,14.93
2023-04-12T02:21:52.930Z,14.30
2023-04-12T02:24:20.895Z,14.70
2023-04-12T02:26:50.094Z,14.90
2023-04-12T02:29:18.520Z,14.40
2023-04-12T02:31:48.425Z,15.70
2023-04-12T02:34:18.200Z,15.47
2023-04-12T02:36:48.469Z,15.73
2023-04-12T02:39:18.979Z,15.67
2023-04-12T02:41:47.179Z,14.47
2023-04-12T02:44:15.130Z,15.30
2023-04-12T02:46:43.117Z,14.43
2023-04-12T02:49:12.562Z,14.60
2023-04-12T02:51:40.861Z,15.63
2023-04-12T02:54:08.761Z,14.60
2023-04-12T02:56:37.074Z,15.13
2023-04-12T02:59:05.017Z,14.53
2023-04-12T03:01:33.796Z,15.10
2023-04-12T03:04:02.243Z,14.37
2023-04-12T03:06:32.159Z,15.23
2023-04-12T03:09:00.508Z,16.27
2023-04-12T03:11:28.488Z,16.43
2023-04-12T03:13:56.629Z,15.63
2023-04-12T03:16:30.143Z,16.33
2023-04-12T03:18:58.762Z,16.83
2023-04-12T03:21:28.384Z,18.00
2023-04-12T03:23:58.080Z,18.27
2023-04-12T03:26:26.677Z,17.77
2023-04-12T03:29:00.751Z,17.97
2023-04-12T03:31:29.235Z,18.77
2023-04-12T03:33:57.580Z,18.10
2023-04-12T03:36:27.163Z,18.33
2023-04-12T03:38:55.578Z,17.03
2023-04-12T03:41:24.987Z,17.70
2023-04-12T03:43:52.936Z,17.70
2023-04-12T03:46:21.370Z,17.63
2023-04-12T03:48:50.870Z,17.43
2023-04-12T03:51:22.296Z,17.80
2023-04-12T03:53:50.302Z,18.57
2023-04-12T03:56:20.143Z,18.40
2023-04-12T03:58:49.608Z,17.70
2023-04-12T04:01:18.015Z,18.13
2023-04-12T04:03:46.672Z,16.80
2023-04-12T04:06:15.153Z,16.33
2023-04-12T04:08:44.721Z,18.20
2023-04-12T04:11:14.253Z,18.27
2023-04-12T04:13:42.425Z,17.50
2023-04-12T04:16:12.057Z,18.07
2023-04-12T04:18:40.198Z,17.87
2023-04-12T04:21:08.992Z,18.17
2023-04-12T04:23:39.177Z,18.87
2023-04-12T04:26:10.576Z,17.23
2023-04-12T04:28:39.563Z,16.73
2023-04-12T04:31:10.701Z,17.60
2023-04-12T04:33:41.834Z,17.47
2023-04-12T04:36:13.436Z,17.87
2023-04-12T04:38:42.127Z,18.33
2023-04-12T04:41:10.534Z,16.80
2023-04-12T04:43:40.234Z,17.20
2023-04-12T04:46:08.533Z,18.00
2023-04-12T04:48:36.665Z,17.10
2023-04-12T04:51:06.282Z,17.33
2023-04-12T04:53:34.730Z,17.27
2023-04-12T04:56:02.757Z,18.60
2023-04-12T04:58:30.766Z,17.17
2023-04-12T05:00:59.883Z,17.17
2023-04-12T05:03:30.836Z,15.87
2023-04-12T05:05:59.108Z,17.20
2023-04-12T05:08:29.773Z,16.73
2023-04-12T05:10:58.248Z,15.70
2023-04-12T05:13:26.276Z,14.70
2023-04-12T05:15:54.306Z,14.37
2023-04-12T05:18:22.237Z,14.67
2023-04-12T05:20:50.584Z,15.20
2023-04-12T05:23:20.840Z,13.93
2023-04-12T05:25:50.432Z,13.87
2023-04-12T05:28:18.581Z,13.50
2023-04-12T05:30:47.921Z,12.70
2023-04-12T05:33:16.160Z,13.67
2023-04-12T05:35:44.237Z,11.57
2023-04-12T05:38:12.214Z,11.73
2023-04-12T05:40:40.108Z,13.53
2023-04-12T05:43:12.575Z,15.40
2023-04-12T05:45:41.937Z,10.90
2023-04-12T05:48:10.180Z,12.33
2023-04-12T05:50:38.338Z,11.07
2023-04-12T05:53:06.382Z,9.97
2023-04-12T05:55:35.940Z,9.50
2023-04-12T05:58:05.554Z,10.43
2023-04-12T06:00:35.023Z,10.53
2023-04-12T06:03:03.963Z,8.93
2023-04-12T06:05:32.934Z,9.40
2023-04-12T06:08:02.288Z,9.00
2023-04-12T06:10:32.422Z,8.37
2023-04-12T06:13:00.347Z,8.57
2023-04-12T06:15:29.027Z,8.57
2023-04-12T06:17:58.624Z,8.60
2023-04-12T06:20:26.656Z,8.53
2023-04-12T06:22:54.693Z,8.37
2023-04-12T06:25:24.117Z,8.13
2023-04-12T06:27:52.072Z,8.53
2023-04-12T06:30:20.744Z,7.73
2023-04-12T06:32:48.822Z,9.50
2023-04-12T06:35:20.301Z,10.90
2023-04-12T06:37:48.422Z,8.53
2023-04-12T06:40:16.592Z,8.77
2023-04-12T06:42:44.591Z,10.10
2023-04-12T06:45:12.776Z,9.30
2023-04-12T06:47:40.783Z,9.13
2023-04-12T06:50:09.934Z,9.53
2023-04-12T06:52:39.265Z,7.67
2023-04-12T06:55:08.416Z,8.27
2023-04-12T06:57:36.436Z,7.23
2023-04-12T07:00:05.076Z,12.40
2023-04-12T07:02:33.533Z,11.13
2023-04-12T07:05:01.661Z,9.07
2023-04-12T07:07:29.623Z,9.87
2023-04-12T07:10:00.418Z,6.53
2023-04-12T07:12:28.434Z,6.70
2023-04-12T07:14:56.407Z,6.50
2023-04-12T07:17:27.239Z,5.67
2023-04-12T07:19:55.242Z,5.67
2023-04-12T07:22:23.442Z,8.13
2023-04-12T07:24:51.919Z,6.00
2023-04-12T07:27:21.286Z,5.60
2023-04-12T07:29:49.245Z,5.97
2023-04-12T07:32:17.191Z,6.40
2023-04-12T07:34:45.065Z,6.87
2023-04-12T07:37:13.172Z,6.20
2023-04-12T07:39:44.052Z,5.80
2023-04-12T07:42:12.088Z,5.80
2023-04-12T07:44:41.536Z,5.20
2023-04-12T07:47:09.608Z,5.37
2023-04-12T07:49:37.506Z,5.47
2023-04-12T07:52:05.908Z,5.23
2023-04-12T07:54:33.890Z,5.03
2023-04-12T07:57:03.718Z,4.60
2023-04-12T07:59:32.316Z,4.30
2023-04-12T08:02:02.108Z,4.70
2023-04-12T08:04:30.341Z,4.50
2023-04-12T08:06:58.332Z,4.83
2023-04-12T08:09:26.453Z,4.37
2023-04-12T08:11:54.425Z,3.90
2023-04-12T08:14:22.594Z,4.10
2023-04-12T08:16:50.609Z,3.90
2023-04-12T08:19:21.471Z,3.70
2023-04-12T08:21:49.397Z,3.80
2023-04-12T08:24:17.388Z,3.77
2023-04-12T08:26:45.882Z,3.53
2023-04-12T08:29:14.010Z,3.70
2023-04-12T08:31:42.162Z,4.27
2023-04-12T08:34:10.234Z,3.10
2023-04-12T08:36:41.088Z,3.60
2023-04-12T08:39:09.574Z,3.30
2023-04-12T08:41:39.945Z,3.75
2023-04-12T08:44:08.312Z,3.40
2023-04-12T08:46:37.750Z,3.07
2023-04-12T08:49:05.905Z,3.20
2023-04-12T08:51:36.336Z,2.80
2023-04-12T08:54:06.371Z,3.25
2023-04-12T08:56:34.606Z,3.33
2023-04-12T08:59:03.645Z,2.83
2023-04-12T09:01:31.615Z,2.72
2023-04-12T09:04:00.044Z,3.20
2023-04-12T09:06:28.338Z,3.70
2023-04-12T09:08:58.099Z,2.72
2023-04-12T09:11:28.912Z,6.50
2023-04-12T09:13:58.630Z,3.67
2023-04-12T09:16:37.518Z,5.93
2023-04-12T09:19:05.725Z,16.35
2023-04-12T09:21:34.904Z,3.50
2023-04-12T09:24:11.757Z,2.58
2023-04-12T09:26:43.002Z,6.68
2023-04-12T09:29:25.183Z,3.47
2023-04-12T09:31:58.046Z,8.45
2023-04-12T09:34:27.767Z,7.28
2023-04-12T09:36:56.135Z,6.30
2023-04-12T09:39:33.106Z,15.68
2023-04-12T09:42:25.034Z,32.03
2023-04-12T09:44:59.026Z,6.95
2023-04-12T09:47:39.399Z,14.27
2023-04-12T09:50:09.990Z,10.50
2023-04-12T09:52:39.501Z,6.38
2023-04-12T09:55:11.219Z,6.00
2023-04-12T09:57:43.205Z,3.33
2023-04-12T10:00:17.698Z,7.55
2023-04-12T10:02:47.844Z,5.28
2023-04-12T10:05:19.001Z,3.20
2023-04-12T10:07:48.115Z,3.00
2023-04-12T10:10:18.155Z,3.97
2023-04-12T10:12:49.478Z,6.85
2023-04-12T10:15:18.745Z,9.93
2023-04-12T10:17:48.324Z,10.48
2023-04-12T10:20:18.230Z,9.65
2023-04-12T10:22:48.913Z,6.65
2023-04-12T10:25:19.382Z,3.00
2023-04-12T10:27:49.883Z,4.50
2023-04-12T10:30:25.068Z,4.10
2023-04-12T10:33:14.809Z,3.40
2023-04-12T10:35:54.421Z,2.53
2023-04-12T10:38:25.046Z,2.70
2023-04-12T10:41:17.290Z,2.72
2023-04-12T10:43:48.285Z,2.70
2023-04-12T10:46:53.137Z,2.83
2023-04-12T10:49:21.510Z,3.05
2023-04-12T10:52:16.065Z,2.78
2023-04-12T10:54:44.318Z,2.90
2023-04-12T10:57:48.135Z,2.58
2023-04-12T11:00:18.386Z,3.33
2023-04-12T11:03:07.629Z,2.08
2023-04-12T11:05:57.680Z,3.53
2023-04-12T11:08:26.367Z,2.22
2023-04-12T11:11:00.273Z,3.40
2023-04-12T11:13:29.233Z,2.70
2023-04-12T11:16:02.556Z,2.90
2023-04-12T11:18:30.654Z,2.15
2023-04-12T11:20:59.606Z,2.50
2023-04-12T11:23:28.221Z,2.35
2023-04-12T11:26:14.951Z,2.83
2023-04-12T11:28:43.149Z,2.22
2023-04-12T11:31:12.615Z,2.15
2023-04-12T11:33:41.800Z,2.10
2023-04-12T11:36:13.240Z,1.85
2023-04-12T11:38:42.072Z,2.10
2023-04-12T11:41:11.635Z,2.38
2023-04-12T11:43:40.280Z,1.90
2023-04-12T11:46:08.906Z,1.90
2023-04-12T11:48:39.695Z,2.20
2023-04-12T11:51:20.836Z,2.35
2023-04-12T11:53:53.942Z,1.92
2023-04-12T11:56:22.271Z,1.98
2023-04-12T11:58:50.460Z,1.63
2023-04-12T12:01:20.132Z,1.92
2023-04-12T12:03:50.602Z,2.15
2023-04-12T12:06:20.759Z,2.10
2023-04-12T12:08:51.489Z,1.90
2023-04-12T12:11:21.820Z,1.77
2023-04-12T12:13:50.995Z,2.80
2023-04-12T12:16:19.924Z,1.70
2023-04-12T12:18:52.618Z,1.75
2023-04-12T12:21:22.283Z,1.90
2023-04-12T12:23:51.109Z,1.73
2023-04-12T12:26:24.862Z,1.70
2023-04-12T12:28:55.700Z,1.90
2023-04-12T12:31:26.746Z,1.95
2023-04-12T12:33:58.333Z,2.40
2023-04-12T12:36:33.659Z,2.47
2023-04-12T12:39:07.975Z,2.20
2023-04-12T12:41:36.725Z,2.05
2023-04-12T12:44:04.858Z,2.05
2023-04-12T12:46:50.823Z,1.77
2023-04-12T12:49:22.265Z,1.60
2023-04-12T12:51:52.097Z,1.90
2023-04-12T12:54:36.868Z,2.05
2023-04-12T12:57:08.168Z,2.20
2023-04-12T12:59:36.339Z,2.33
2023-04-12T13:02:05.525Z,1.87
2023-04-12T13:04:35.263Z,1.70
2023-04-12T13:07:03.307Z,2.20
2023-04-12T13:09:32.791Z,1.83
2023-04-12T13:12:02.017Z,2.10
2023-04-12T13:14:30.573Z,2.13
2023-04-12T13:16:58.649Z,2.33
2023-04-12T13:19:26.785Z,1.90
2023-04-12T13:21:57.305Z,1.90
2023-04-12T13:24:25.302Z,1.60
2023-04-12T13:26:53.321Z,1.60
2023-04-12T13:29:21.224Z,1.77
2023-04-12T13:31:49.388Z,2.50
2023-04-12T13:34:17.626Z,2.67
2023-04-12T13:36:46.082Z,2.00
2023-04-12T13:39:15.500Z,2.93
2023-04-12T13:41:43.512Z,1.77
2023-04-12T13:44:11.777Z,2.27
2023-04-12T13:46:39.834Z,1.80
2023-04-12T13:49:07.951Z,1.70
2023-04-12T13:51:36.059Z,2.00
2023-04-12T13:54:04.233Z,2.00
2023-04-12T13:56:33.659Z,1.80
2023-04-12T13:59:02.513Z,2.20
2023-04-12T14:01:30.740Z,1.93
2023-04-12T14:03:58.695Z,1.90
2023-04-12T14:06:27.225Z,1.80
2023-04-12T14:08:55.162Z,1.87
2023-04-12T14:11:24.996Z,1.53
2023-04-12T14:13:54.669Z,1.70
2023-04-12T14:16:22.607Z,1.77
2023-04-12T14:18:50.682Z,1.83
2023-04-12T14:21:18.862Z,1.77
2023-04-12T14:23:47.087Z,2.07
2023-04-12T14:26:20.389Z,2.00
2023-04-12T14:28:50.163Z,1.50
2023-04-12T14:31:22.500Z,1.60
2023-04-12T14:33:50.489Z,1.77
2023-04-12T14:36:21.437Z,1.80
2023-04-12T14:38:49.672Z,2.10
2023-04-12T14:41:19.877Z,2.00
2023-04-12T14:43:47.961Z,1.80
2023-04-12T14:46:19.257Z,1.60
2023-04-12T14:48:47.403Z,1.87
2023-04-12T14:51:15.329Z,2.10
2023-04-12T14:53:43.691Z,1.90
2023-04-12T14:56:20.407Z,1.73
2023-04-12T14:58:50.585Z,1.87
2023-04-12T15:01:20.015Z,1.63
2023-04-12T15:03:48.273Z,1.80
2023-04-12T15:06:16.458Z,1.83
2023-04-12T15:08:44.678Z,1.90
2023-04-12T15:11:13.598Z,1.90
2023-04-12T15:13:44.397Z,1.63
2023-04-12T15:16:14.345Z,2.07
2023-04-12T15:18:43.734Z,2.07
2023-04-12T15:21:12.948Z,2.20
2023-04-12T15:23:42.083Z,1.77
2023-04-12T15:26:10.730Z,1.77
2023-04-12T15:28:39.085Z,1.50
2023-04-12T15:31:08.147Z,1.80
2023-04-12T15:33:37.570Z,2.10
2023-04-12T15:36:07.460Z,2.00
2023-04-12T15:38:41.959Z,1.70
2023-04-12T15:41:10.757Z,1.80
2023-04-12T15:43:38.790Z,1.87
2023-04-12T15:46:07.494Z,1.63
2023-04-12T15:48:39.051Z,2.70
2023-04-12T15:51:08.686Z,1.60
2023-04-12T15:53:37.205Z,2.00
2023-04-12T15:56:05.656Z,1.70
2023-04-12T15:58:33.648Z,1.80
2023-04-12T16:01:01.817Z,2.13
2023-04-12T16:03:30.293Z,1.77
2023-04-12T16:05:58.285Z,2.20
2023-04-12T16:08:28.342Z,2.10
2023-04-12T16:10:56.370Z,2.03
2023-04-12T16:13:24.329Z,2.03
2023-04-12T16:15:52.792Z,1.87
2023-04-12T16:18:20.779Z,1.60
2023-04-12T16:20:53.106Z,1.83
2023-04-12T16:23:21.343Z,1.73
2023-04-12T16:25:53.124Z,2.40
2023-04-12T16:28:22.688Z,2.30
2023-04-12T16:30:50.885Z,1.70
2023-04-12T16:33:19.481Z,2.20
2023-04-12T16:35:47.456Z,2.50
2023-04-12T16:38:17.662Z,2.80
2023-04-12T16:40:45.802Z,2.20
2023-04-12T16:43:15.117Z,2.60
2023-04-12T16:45:45.739Z,2.10
2023-04-12T16:48:15.220Z,2.13
2023-04-12T16:50:45.002Z,1.97
2023-04-12T16:53:13.047Z,2.43
2023-04-12T16:55:43.472Z,2.10
2023-04-12T16:58:14.344Z,2.20
2023-04-12T17:00:44.194Z,1.90
2023-04-12T17:03:13.127Z,2.50
2023-04-12T17:05:41.409Z,2.33
2023-04-12T17:08:09.972Z,2.47
2023-04-12T17:10:38.490Z,2.30
2023-04-12T17:13:06.748Z,2.37
2023-04-12T17:15:34.815Z,2.40
2023-04-12T17:18:05.724Z,2.30
2023-04-12T17:20:34.584Z,2.50
2023-04-12T17:23:03.304Z,2.10
2023-04-12T17:25:32.300Z,2.13
2023-04-12T17:28:01.233Z,2.30
2023-04-12T17:30:29.933Z,2.43
2023-04-12T17:33:01.486Z,2.20
2023-04-12T17:35:31.339Z,2.50
2023-04-12T17:37:59.272Z,2.50
2023-04-12T17:40:27.271Z,2.43
2023-04-12T17:42:55.539Z,2.40
2023-04-12T17:45:24.127Z,2.23
2023-04-12T17:47:52.184Z,2.60
2023-04-12T17:50:20.176Z,2.73
2023-04-12T17:52:50.134Z,2.43
2023-04-12T17:55:23.567Z,2.70
2023-04-12T17:57:51.573Z,2.83
2023-04-12T18:00:20.774Z,2.80
2023-04-12T18:02:50.194Z,3.30
2023-04-12T18:05:20.804Z,2.70
2023-04-12T18:07:50.226Z,3.00
2023-04-12T18:10:21.406Z,2.60
2023-04-12T18:12:50.408Z,2.90
2023-04-12T18:15:19.074Z,3.40
2023-04-12T18:17:47.320Z,4.50
2023-04-12T18:20:16.509Z,3.93
2023-04-12T18:22:45.932Z,4.20
2023-04-12T18:25:16.740Z,6.90
2023-04-12T18:27:47.738Z,3.97
2023-04-12T18:30:17.366Z,3.60
2023-04-12T18:32:45.800Z,4.27
2023-04-12T18:35:13.945Z,4.03
2023-04-12T18:37:42.636Z,4.37
2023-04-12T18:40:11.814Z,4.03
2023-04-12T18:42:41.357Z,3.27
2023-04-12T18:45:10.377Z,5.50
2023-04-12T18:47:39.107Z,4.43
2023-04-12T18:50:08.625Z,3.30
2023-04-12T18:52:37.952Z,3.30
2023-04-12T18:55:07.238Z,6.53
2023-04-12T18:57:35.456Z,3.33
2023-04-12T19:00:10.497Z,3.47
2023-04-12T19:02:38.601Z,3.67
2023-04-12T19:05:06.852Z,5.00
2023-04-12T19:07:34.749Z,4.60
2023-04-12T19:10:02.764Z,7.47
2023-04-12T19:12:30.934Z,6.00
2023-04-12T19:14:58.906Z,4.80
2023-04-12T19:17:29.415Z,6.03
2023-04-12T19:19:58.671Z,6.83
2023-04-12T19:22:28.621Z,9.13
2023-04-12T19:24:56.862Z,7.17
2023-04-12T19:27:25.216Z,5.67
2023-04-12T19:29:53.597Z,6.17
2023-04-12T19:32:22.157Z,6.50
2023-04-12T19:34:51.877Z,5.60
2023-04-12T19:37:19.851Z,6.80
2023-04-12T19:39:48.625Z,5.13
2023-04-12T19:42:17.737Z,4.40
2023-04-12T19:44:46.476Z,5.50
2023-04-12T19:47:15.530Z,5.20
2023-04-12T19:49:43.765Z,5.20
2023-04-12T19:52:15.421Z,6.00
2023-04-12T19:54:43.313Z,8.67
2023-04-12T19:57:11.768Z,5.57
2023-04-12T19:59:39.890Z,6.20
2023-04-12T20:02:08.551Z,6.13
2023-04-12T20:04:38.321Z,7.23
2023-04-12T20:07:06.722Z,7.37
2023-04-12T20:09:36.078Z,5.70
2023-04-12T20:12:04.122Z,5.13
2023-04-12T20:14:35.378Z,5.77
2023-04-12T20:17:06.164Z,4.60
2023-04-12T20:19:34.580Z,4.97
2023-04-12T20:22:03.479Z,4.63
2023-04-12T20:24:34.453Z,4.90
2023-04-12T20:27:03.928Z,4.50
2023-04-12T20:29:33.427Z,4.67
2023-04-12T20:32:02.321Z,4.03
2023-04-12T20:34:30.301Z,4.00
2023-04-12T20:36:59.976Z,4.63
2023-04-12T20:39:29.645Z,4.37
2023-04-12T20:42:01.120Z,4.33
2023-04-12T20:44:30.710Z,4.47
2023-04-12T20:46:59.042Z,4.10
2023-04-12T20:49:27.886Z,4.57
2023-04-12T20:51:57.355Z,3.80
2023-04-12T20:54:25.483Z,3.60
2023-04-12T20:56:54.327Z,3.33
2023-04-12T20:59:23.056Z,3.33
2023-04-12T21:04:41.250Z,3.10
2023-04-12T21:07:09.356Z,3.53
2023-04-12T21:09:37.666Z,3.17
2023-04-12T21:12:07.342Z,2.77
2023-04-12T21:14:35.626Z,2.70
2023-04-12T21:17:07.193Z,2.73
2023-04-12T21:19:39.076Z,2.77
2023-04-12T21:22:08.372Z,2.53
2023-04-12T21:24:38.974Z,2.93
2023-04-12T21:27:08.462Z,2.77
2023-04-12T21:29:41.388Z,2.40
2023-04-12T21:32:11.297Z,2.50
2023-04-12T21:34:39.273Z,2.73
2023-04-12T21:37:07.761Z,2.43
2023-04-12T21:39:35.793Z,2.67
2023-04-12T21:42:03.707Z,2.90
2023-04-12T21:44:32.260Z,3.37
2023-04-12T21:47:00.230Z,2.83
2023-04-12T21:49:31.224Z,3.07
2023-04-12T21:51:59.452Z,3.10
2023-04-12T21:54:28.938Z,3.70
2023-04-12T21:56:57.442Z,3.27
2023-04-12T21:59:26.631Z,4.53
2023-04-12T22:01:54.707Z,4.23
2023-04-12T22:04:22.687Z,4.77
2023-04-12T22:06:52.632Z,5.50
2023-04-12T22:09:20.603Z,4.90
2023-04-12T22:11:49.140Z,5.43
2023-04-12T22:14:17.088Z,6.00
2023-04-12T22:16:45.294Z,5.43
2023-04-12T22:19:13.546Z,4.77
2023-04-12T22:21:41.569Z,5.10
2023-04-12T22:24:10.943Z,5.77
2023-04-12T22:26:38.952Z,11.10
2023-04-12T22:29:07.198Z,11.70
2023-04-12T22:31:35.604Z,13.37
2023-04-12T22:34:04.622Z,12.43
2023-04-12T22:36:37.170Z,10.33
2023-04-12T22:39:05.353Z,11.10
2023-04-12T22:41:34.676Z,8.90
2023-04-12T22:44:03.040Z,11.63
2023-04-12T22:46:32.466Z,9.03
2023-04-12T22:49:01.629Z,10.53
2023-04-12T22:51:29.569Z,10.57
2023-04-12T22:53:58.195Z,10.63
2023-04-12T22:56:27.095Z,11.87
2023-04-12T22:58:57.322Z,12.33
2023-04-12T23:01:25.356Z,11.70
2023-04-12T23:03:54.200Z,10.10
2023-04-12T23:06:22.120Z,12.37
2023-04-12T23:08:50.022Z,14.00
2023-04-12T23:11:18.060Z,13.43
2023-04-12T23:13:46.075Z,13.47
2023-04-12T23:16:16.250Z,13.80
2023-04-12T23:18:45.128Z,12.10
2023-04-12T23:21:13.318Z,12.47
2023-04-12T23:23:41.582Z,12.33
2023-04-12T23:26:10.823Z,13.20
2023-04-12T23:28:40.372Z,12.57
2023-04-12T23:31:08.885Z,12.43
2023-04-12T23:33:43.004Z,12.80
2023-04-12T23:36:11.814Z,12.73
2023-04-12T23:38:40.755Z,11.83
2023-04-12T23:41:11.538Z,12.30
2023-04-12T23:43:39.545Z,10.57
2023-04-12T23:46:08.350Z,10.47
2023-04-12T23:48:36.787Z,11.00
2023-04-12T23:51:06.921Z,10.37
2023-04-12T23:53:34.925Z,9.77
2023-04-12T23:56:02.954Z,9.10
2023-04-12T23:58:31.065Z,7.70
